createdAt,value
2022-10-28T00:01:24.839Z,38.28
2022-10-28T00:03:27.046Z,39.88
2022-10-28T00:05:33.541Z,40.75
2022-10-28T00:07:35.272Z,40.72
2022-10-28T00:09:37.027Z,37.90
2022-10-28T00:11:38.921Z,41.35
2022-10-28T00:13:42.313Z,39.65
2022-10-28T00:15:44.091Z,37.08
2022-10-28T00:17:46.246Z,39.85
2022-10-28T00:19:47.979Z,41.00
2022-10-28T00:21:49.681Z,40.70
2022-10-28T00:23:51.912Z,38.47
2022-10-28T00:25:53.634Z,36.00
2022-10-28T00:27:55.630Z,38.25
2022-10-28T00:29:57.586Z,35.92
2022-10-28T00:31:59.340Z,37.88
2022-10-28T00:34:03.175Z,38.85
2022-10-28T00:36:26.568Z,37.17
2022-10-28T00:38:30.878Z,40.13
2022-10-28T00:40:36.107Z,42.63
2022-10-28T00:42:37.933Z,46.10
2022-10-28T00:44:39.575Z,42.58
2022-10-28T00:46:47.662Z,42.25
2022-10-28T00:48:55.132Z,42.40
2022-10-28T00:50:57.101Z,40.95
2022-10-28T00:53:05.400Z,42.05
2022-10-28T00:55:08.356Z,41.53
2022-10-28T00:57:16.185Z,42.95
2022-10-28T00:59:31.595Z,42.38
2022-10-28T01:01:33.572Z,42.83
2022-10-28T01:03:37.371Z,43.85
2022-10-28T01:07:43.961Z,42.55
2022-10-28T01:09:46.040Z,43.65
2022-10-28T01:12:21.000Z,43.35
2022-10-28T01:14:47.167Z,39.60
2022-10-28T01:17:42.323Z,41.70
2022-10-28T01:20:11.751Z,41.00
2022-10-28T01:22:25.257Z,40.25
2022-10-28T01:24:29.832Z,39.95
2022-10-28T01:26:52.937Z,40.13
2022-10-28T01:29:25.567Z,41.97
2022-10-28T01:31:41.600Z,37.65
2022-10-28T01:33:58.018Z,38.85
2022-10-28T01:36:22.548Z,39.60
2022-10-28T01:38:36.049Z,38.20
2022-10-28T01:41:10.494Z,39.70
2022-10-28T01:43:20.743Z,39.05
2022-10-28T01:45:53.830Z,39.15
2022-10-28T01:48:02.374Z,39.55
2022-10-28T01:50:11.755Z,44.85
2022-10-28T01:52:18.385Z,41.92
2022-10-28T01:54:24.882Z,39.35
2022-10-28T01:56:31.123Z,39.33
2022-10-28T01:58:35.426Z,40.55
2022-10-28T02:00:38.676Z,37.45
2022-10-28T02:02:41.152Z,38.63
2022-10-28T02:04:42.905Z,37.75
2022-10-28T02:06:48.273Z,41.53
2022-10-28T02:09:32.780Z,44.42
2022-10-28T02:11:59.587Z,38.08
2022-10-28T02:14:15.443Z,36.75
2022-10-28T02:16:48.071Z,40.13
2022-10-28T02:19:14.183Z,38.65
2022-10-28T02:21:33.985Z,36.42
2022-10-28T02:23:47.642Z,35.42
2022-10-28T02:25:52.301Z,36.58
2022-10-28T02:28:02.024Z,36.85
2022-10-28T02:30:08.504Z,36.70
2022-10-28T02:32:15.990Z,36.63
2022-10-28T02:34:21.766Z,35.83
2022-10-28T02:36:27.185Z,35.75
2022-10-28T02:38:42.771Z,36.55
2022-10-28T02:43:02.752Z,37.25
2022-10-28T02:45:18.431Z,38.53
2022-10-28T02:47:25.812Z,36.25
2022-10-28T02:49:30.723Z,35.78
2022-10-28T02:51:38.709Z,35.28
2022-10-28T02:53:55.583Z,35.60
2022-10-28T02:56:00.989Z,36.03
2022-10-28T02:58:02.976Z,36.90
2022-10-28T03:00:23.018Z,35.17
2022-10-28T03:02:25.153Z,36.97
2022-10-28T03:04:27.112Z,35.55
2022-10-28T03:06:28.954Z,34.05
2022-10-28T03:08:30.672Z,34.85
2022-10-28T03:10:32.516Z,34.47
2022-10-28T03:12:34.247Z,35.85
2022-10-28T03:14:36.364Z,33.78
2022-10-28T03:16:38.905Z,35.17
2022-10-28T03:18:40.586Z,33.90
2022-10-28T03:20:42.297Z,31.80
2022-10-28T03:22:44.366Z,33.42
2022-10-28T03:24:46.215Z,32.17
2022-10-28T03:26:47.903Z,32.45
2022-10-28T03:28:49.889Z,34.83
2022-10-28T03:30:51.613Z,31.95
2022-10-28T03:32:53.599Z,33.45
2022-10-28T03:34:56.139Z,32.03
2022-10-28T03:36:58.374Z,33.95
2022-10-28T03:39:00.194Z,33.72
2022-10-28T03:41:01.967Z,33.38
2022-10-28T03:43:03.657Z,35.65
2022-10-28T03:45:05.928Z,34.80
2022-10-28T03:47:07.963Z,35.63
2022-10-28T03:49:09.654Z,36.35
2022-10-28T03:51:11.347Z,35.63
2022-10-28T03:53:13.321Z,33.97
2022-10-28T03:55:15.068Z,32.75
2022-10-28T03:57:16.887Z,32.33
2022-10-28T03:59:20.344Z,31.90
2022-10-28T04:03:25.943Z,33.42
2022-10-28T04:05:27.845Z,32.67
2022-10-28T04:07:29.553Z,31.92
2022-10-28T04:09:31.274Z,32.70
2022-10-28T04:11:33.126Z,35.05
2022-10-28T04:13:35.051Z,35.10
2022-10-28T04:15:37.050Z,33.20
2022-10-28T04:17:39.639Z,32.90
2022-10-28T04:19:41.327Z,35.90
2022-10-28T04:21:43.040Z,34.85
2022-10-28T04:23:45.053Z,34.17
2022-10-28T04:25:46.735Z,40.65
2022-10-28T04:27:48.754Z,36.92
2022-10-28T04:29:50.803Z,34.65
2022-10-28T04:31:52.528Z,35.53
2022-10-28T04:33:54.282Z,34.15
2022-10-28T04:35:56.720Z,33.35
2022-10-28T04:37:58.430Z,34.00
2022-10-28T04:40:00.209Z,34.63
2022-10-28T04:42:02.291Z,34.67
2022-10-28T04:44:04.061Z,35.15
2022-10-28T04:46:05.852Z,35.53
2022-10-28T04:48:09.544Z,33.90
2022-10-28T04:52:15.615Z,32.78
2022-10-28T04:54:18.053Z,33.15
2022-10-28T04:56:19.826Z,32.75
2022-10-28T04:58:21.513Z,32.20
2022-10-28T05:00:25.032Z,33.20
2022-10-28T05:02:26.899Z,33.00
2022-10-28T05:04:28.760Z,32.50
2022-10-28T05:06:30.721Z,33.17
2022-10-28T05:08:32.616Z,34.35
2022-10-28T05:10:34.332Z,32.17
2022-10-28T05:12:36.173Z,32.00
2022-10-28T05:14:37.853Z,32.00
2022-10-28T05:16:47.113Z,34.45
2022-10-28T05:18:48.973Z,32.95
2022-10-28T05:20:50.765Z,32.97
2022-10-28T05:22:54.305Z,35.58
2022-10-28T05:24:56.646Z,34.65
2022-10-28T05:27:00.026Z,33.92
2022-10-28T05:29:01.706Z,31.35
2022-10-28T05:31:03.657Z,32.38
2022-10-28T05:33:05.407Z,33.67
2022-10-28T05:35:08.074Z,33.42
2022-10-28T05:37:10.045Z,31.92
2022-10-28T05:39:11.725Z,33.00
2022-10-28T05:41:13.483Z,32.40
2022-10-28T05:43:15.336Z,32.25
2022-10-28T05:45:18.223Z,32.97
2022-10-28T05:47:20.024Z,33.17
2022-10-28T05:49:22.016Z,32.53
2022-10-28T05:51:23.789Z,31.33
2022-10-28T05:53:25.476Z,32.83
2022-10-28T05:55:28.598Z,32.45
2022-10-28T05:57:30.339Z,32.35
2022-10-28T05:59:32.023Z,32.90
2022-10-28T06:01:33.956Z,31.90
2022-10-28T06:03:36.068Z,31.02
2022-10-28T06:05:39.512Z,32.53
2022-10-28T06:07:41.942Z,32.17
2022-10-28T06:09:43.663Z,33.90
2022-10-28T06:11:43.815Z,34.70
2022-10-28T06:13:45.811Z,36.67
2022-10-28T06:15:54.488Z,36.88
2022-10-28T06:17:56.235Z,34.58
2022-10-28T06:19:58.093Z,37.58
2022-10-28T06:21:59.846Z,34.85
2022-10-28T06:24:01.592Z,35.08
2022-10-28T06:26:03.785Z,33.72
2022-10-28T06:28:08.225Z,32.88
2022-10-28T06:30:12.449Z,33.40
2022-10-28T06:32:14.701Z,32.65
2022-10-28T06:34:16.411Z,33.65
2022-10-28T06:36:18.133Z,32.80
2022-10-28T06:38:20.184Z,32.35
2022-10-28T06:40:22.891Z,32.45
2022-10-28T06:42:24.629Z,34.25
2022-10-28T06:44:26.646Z,33.58
2022-10-28T06:46:28.373Z,35.25
2022-10-28T06:48:32.189Z,33.53
2022-10-28T06:50:35.543Z,34.35
2022-10-28T06:52:37.304Z,33.78
2022-10-28T06:54:39.025Z,34.03
2022-10-28T06:56:41.004Z,35.42
2022-10-28T06:58:42.795Z,35.95
2022-10-28T07:00:44.517Z,36.00
2022-10-28T07:02:51.456Z,35.50
2022-10-28T07:04:53.230Z,34.90
2022-10-28T07:06:56.361Z,32.60
2022-10-28T07:08:58.311Z,33.10
2022-10-28T07:11:00.895Z,31.58
2022-10-28T07:13:02.742Z,30.90
2022-10-28T07:15:05.185Z,29.92
2022-10-28T07:17:06.875Z,31.48
2022-10-28T07:19:09.213Z,32.53
2022-10-28T07:21:11.277Z,31.58
2022-10-28T07:23:13.365Z,30.77
2022-10-28T07:25:15.107Z,30.40
2022-10-28T07:27:17.289Z,31.02
2022-10-28T07:29:18.982Z,33.03
2022-10-28T07:31:20.817Z,33.85
2022-10-28T07:33:22.917Z,31.55
2022-10-28T07:35:24.685Z,33.72
2022-10-28T07:37:26.403Z,32.47
2022-10-28T07:39:28.452Z,31.45
2022-10-28T07:41:30.243Z,32.85
2022-10-28T07:43:31.997Z,33.47
2022-10-28T07:45:35.301Z,30.77
2022-10-28T07:47:37.018Z,31.80
2022-10-28T07:49:38.737Z,32.65
2022-10-28T07:51:40.735Z,32.58
2022-10-28T07:53:42.580Z,32.03
2022-10-28T07:55:44.262Z,31.77
2022-10-28T07:57:46.214Z,32.83
2022-10-28T07:59:48.000Z,31.60
2022-10-28T08:01:49.708Z,30.42
2022-10-28T08:03:51.680Z,30.52
2022-10-28T08:06:00.748Z,31.48
2022-10-28T08:08:02.417Z,32.05
2022-10-28T08:10:04.622Z,32.20
2022-10-28T08:12:08.144Z,32.65
2022-10-28T08:14:09.853Z,32.10
2022-10-28T08:16:12.117Z,32.65
2022-10-28T08:18:13.885Z,32.15
2022-10-28T08:20:15.659Z,31.33
2022-10-28T08:22:17.919Z,32.75
2022-10-28T08:24:19.704Z,32.85
2022-10-28T08:26:21.805Z,34.13
2022-10-28T08:28:25.017Z,32.90
2022-10-28T08:30:26.709Z,33.20
2022-10-28T08:32:28.423Z,32.78
2022-10-28T08:34:30.564Z,33.03
2022-10-28T08:36:32.736Z,31.00
2022-10-28T08:38:34.490Z,31.83
2022-10-28T08:40:47.001Z,29.67
2022-10-28T08:42:55.022Z,29.85
2022-10-28T08:45:18.265Z,30.67
2022-10-28T08:47:45.581Z,30.50
2022-10-28T08:49:52.656Z,32.08
2022-10-28T08:51:59.848Z,29.27
2022-10-28T08:54:06.838Z,29.75
2022-10-28T08:56:19.579Z,31.02
2022-10-28T08:58:26.648Z,29.83
2022-10-28T09:00:31.885Z,28.98
2022-10-28T09:02:48.812Z,28.98
2022-10-28T09:05:24.117Z,26.75
2022-10-28T09:07:25.908Z,27.17
2022-10-28T09:10:04.573Z,27.17
2022-10-28T09:12:17.366Z,25.75
2022-10-28T09:14:37.163Z,24.38
2022-10-28T09:16:51.141Z,25.17
2022-10-28T09:21:10.306Z,24.50
2022-10-28T09:23:27.520Z,24.65
2022-10-28T09:25:39.414Z,23.77
2022-10-28T09:28:05.893Z,24.98
2022-10-28T09:30:29.240Z,24.10
2022-10-28T09:32:43.212Z,24.83
2022-10-28T09:37:18.005Z,24.60
2022-10-28T09:39:29.623Z,21.95
2022-10-28T09:41:39.073Z,23.45
2022-10-28T09:44:11.089Z,22.70
2022-10-28T09:46:15.740Z,22.73
2022-10-28T09:48:23.477Z,22.63
2022-10-28T09:50:31.101Z,25.23
2022-10-28T09:52:40.100Z,22.52
2022-10-28T09:54:48.484Z,25.10
2022-10-28T09:56:51.736Z,21.73
2022-10-28T09:58:55.885Z,23.05
2022-10-28T10:00:57.675Z,21.88
2022-10-28T10:02:59.592Z,22.20
2022-10-28T10:05:02.821Z,22.30
2022-10-28T10:07:11.238Z,20.75
2022-10-28T10:09:29.830Z,19.92
2022-10-28T10:11:44.841Z,20.63
2022-10-28T10:13:47.748Z,20.25
2022-10-28T10:15:55.001Z,20.05
2022-10-28T10:18:00.493Z,19.13
2022-10-28T10:20:12.602Z,19.25
2022-10-28T10:22:29.978Z,18.23
2022-10-28T10:24:36.226Z,18.88
2022-10-28T10:26:37.973Z,18.00
2022-10-28T10:28:48.432Z,17.52
2022-10-28T10:30:52.868Z,18.45
2022-10-28T10:32:55.316Z,18.75
2022-10-28T10:35:21.730Z,17.88
2022-10-28T10:37:24.065Z,16.20
2022-10-28T10:39:37.950Z,17.05
2022-10-28T10:41:44.313Z,24.45
2022-10-28T10:43:46.068Z,16.75
2022-10-28T10:46:17.913Z,16.20
2022-10-28T10:48:19.693Z,15.23
2022-10-28T10:50:21.503Z,14.98
2022-10-28T10:52:25.245Z,14.75
2022-10-28T10:54:30.331Z,14.70
2022-10-28T10:56:33.370Z,15.98
2022-10-28T10:58:39.611Z,16.98
2022-10-28T11:00:47.820Z,16.15
2022-10-28T11:02:53.559Z,14.10
2022-10-28T11:05:02.196Z,13.70
2022-10-28T11:07:04.123Z,14.57
2022-10-28T11:09:21.119Z,12.98
2022-10-28T11:11:31.620Z,12.65
2022-10-28T11:13:34.644Z,12.63
2022-10-28T11:15:36.405Z,13.50
2022-10-28T11:17:38.170Z,13.38
2022-10-28T11:19:39.992Z,14.13
2022-10-28T11:22:03.142Z,12.80
2022-10-28T11:24:22.485Z,13.63
2022-10-28T11:26:25.084Z,13.80
2022-10-28T11:28:32.422Z,14.00
2022-10-28T11:30:42.764Z,13.43
2022-10-28T11:33:24.661Z,13.93
2022-10-28T11:35:44.657Z,13.05
2022-10-28T11:38:06.651Z,14.45
2022-10-28T11:40:29.540Z,12.73
2022-10-28T11:42:46.385Z,12.40
2022-10-28T11:44:54.197Z,12.75
2022-10-28T11:47:11.227Z,11.20
2022-10-28T11:49:37.195Z,11.70
2022-10-28T11:51:57.314Z,11.30
2022-10-28T11:54:28.776Z,11.48
2022-10-28T11:56:39.746Z,11.32
2022-10-28T11:59:00.997Z,10.38
2022-10-28T12:01:05.657Z,10.45
2022-10-28T12:03:29.084Z,10.38
2022-10-28T12:05:43.908Z,10.43
2022-10-28T12:08:13.476Z,10.48
2022-10-28T12:10:33.745Z,10.65
2022-10-28T12:12:42.019Z,10.02
2022-10-28T12:14:48.544Z,9.75
2022-10-28T12:17:00.647Z,9.75
2022-10-28T12:19:22.795Z,10.15
2022-10-28T12:21:37.862Z,9.45
2022-10-28T12:23:42.292Z,9.98
2022-10-28T12:25:47.165Z,9.57
2022-10-28T12:27:52.394Z,9.57
2022-10-28T12:30:20.461Z,9.85
2022-10-28T12:32:28.044Z,10.10
2022-10-28T12:34:56.391Z,9.50
2022-10-28T12:37:08.387Z,9.02
2022-10-28T12:39:21.718Z,9.02
2022-10-28T12:41:26.305Z,8.77
2022-10-28T12:44:09.681Z,8.73
2022-10-28T12:46:20.399Z,8.85
2022-10-28T12:48:41.441Z,9.32
2022-10-28T12:50:57.516Z,8.57
2022-10-28T12:53:28.756Z,7.72
2022-10-28T12:55:50.755Z,8.13
2022-10-28T12:58:00.594Z,8.55
2022-10-28T13:00:24.518Z,8.80
2022-10-28T13:02:32.325Z,8.90
2022-10-28T13:04:34.277Z,8.98
2022-10-28T13:07:15.108Z,9.50
2022-10-28T13:09:38.047Z,9.93
2022-10-28T13:14:21.102Z,9.35
2022-10-28T13:17:00.104Z,11.60
2022-10-28T13:19:20.069Z,13.32
2022-10-28T13:21:51.149Z,13.10
2022-10-28T13:23:57.199Z,11.05
2022-10-28T13:26:30.297Z,11.70
2022-10-28T13:28:35.946Z,10.70
2022-10-28T13:30:37.931Z,10.35
2022-10-28T13:32:40.896Z,9.35
2022-10-28T13:34:42.721Z,9.27
2022-10-28T13:36:57.723Z,9.30
2022-10-28T13:39:01.676Z,9.45
2022-10-28T13:41:06.338Z,9.70
2022-10-28T13:43:21.971Z,9.35
2022-10-28T13:45:47.038Z,10.43
2022-10-28T13:47:48.716Z,9.75
2022-10-28T13:50:09.044Z,10.65
2022-10-28T13:52:11.058Z,10.68
2022-10-28T13:54:25.239Z,10.80
2022-10-28T13:56:29.980Z,10.90
2022-10-28T13:58:32.229Z,10.43
2022-10-28T14:00:36.522Z,10.35
2022-10-28T14:02:50.510Z,11.35
2022-10-28T14:05:07.660Z,10.20
2022-10-28T14:07:12.595Z,11.30
2022-10-28T14:09:31.715Z,10.55
2022-10-28T14:11:33.677Z,10.85
2022-10-28T14:13:50.576Z,11.90
2022-10-28T14:16:26.327Z,12.00
2022-10-28T14:18:45.172Z,14.77
2022-10-28T14:20:47.182Z,21.27
2022-10-28T14:22:49.593Z,24.27
2022-10-28T14:24:51.410Z,24.23
2022-10-28T14:27:08.510Z,18.10
2022-10-28T14:29:28.984Z,17.13
2022-10-28T14:31:39.395Z,16.65
2022-10-28T14:33:44.088Z,14.13
2022-10-28T14:35:48.339Z,15.07
2022-10-28T14:38:08.816Z,17.67
2022-10-28T14:40:19.412Z,14.18
2022-10-28T14:42:51.961Z,12.65
2022-10-28T14:45:15.607Z,15.88
2022-10-28T14:47:23.276Z,16.98
2022-10-28T14:49:34.217Z,13.45
2022-10-28T14:51:44.090Z,12.88
2022-10-28T14:53:47.234Z,15.52
2022-10-28T14:55:57.063Z,15.02
2022-10-28T14:58:19.014Z,15.10
2022-10-28T15:00:23.746Z,19.13
2022-10-28T15:02:28.713Z,21.25
2022-10-28T15:04:31.113Z,16.70
2022-10-28T15:06:32.758Z,16.00
2022-10-28T15:08:34.611Z,21.23
2022-10-28T15:10:38.418Z,15.50
2022-10-28T15:12:45.183Z,18.00
2022-10-28T15:14:51.924Z,17.40
2022-10-28T15:16:54.152Z,17.85
2022-10-28T15:18:55.866Z,24.75
2022-10-28T15:21:15.500Z,23.25
2022-10-28T15:23:22.912Z,20.90
2022-10-28T15:25:24.705Z,21.80
2022-10-28T15:27:30.084Z,29.27
2022-10-28T15:29:32.214Z,24.20
2022-10-28T15:31:33.949Z,52.95
2022-10-28T15:33:43.097Z,43.85
2022-10-28T15:35:45.641Z,43.65
2022-10-28T15:37:47.558Z,35.67
2022-10-28T15:39:50.383Z,25.95
2022-10-28T15:41:52.173Z,23.67
2022-10-28T15:44:01.928Z,21.63
2022-10-28T15:46:15.795Z,21.73
2022-10-28T15:48:27.616Z,20.33
2022-10-28T15:50:32.259Z,18.15
2022-10-28T15:52:36.646Z,41.08
2022-10-28T15:54:40.100Z,216.95
2022-10-28T15:56:56.205Z,89.95
2022-10-28T15:59:19.691Z,62.25
2022-10-28T16:01:36.029Z,17.37
2022-10-28T16:03:40.879Z,29.02
2022-10-28T16:05:44.164Z,29.33
2022-10-28T16:07:46.029Z,39.13
2022-10-28T16:09:49.729Z,67.45
2022-10-28T16:11:54.453Z,104.75
2022-10-28T16:13:56.445Z,73.05
2022-10-28T16:16:05.652Z,62.97
2022-10-28T16:18:09.929Z,57.55
2022-10-28T16:20:18.860Z,63.53
2022-10-28T16:22:23.015Z,74.38
2022-10-28T16:24:24.760Z,70.57
2022-10-28T16:26:27.311Z,62.22
2022-10-28T16:28:29.055Z,65.38
2022-10-28T16:30:30.900Z,75.53
2022-10-28T16:32:38.376Z,252.27
2022-10-28T16:34:40.531Z,150.38
2022-10-28T16:36:42.294Z,294.77
2022-10-28T16:38:44.035Z,271.13
2022-10-28T16:40:51.478Z,220.93
2022-10-28T16:42:54.286Z,173.85
2022-10-28T16:44:56.322Z,199.90
2022-10-28T16:46:58.019Z,190.38
2022-10-28T16:48:59.835Z,188.52
2022-10-28T16:51:04.443Z,176.18
2022-10-28T16:53:06.133Z,163.13
2022-10-28T16:55:16.439Z,145.07
2022-10-28T16:57:19.967Z,159.35
2022-10-28T17:01:23.396Z,185.63
2022-10-28T17:03:25.250Z,220.00
2022-10-28T17:05:27.641Z,213.25
2022-10-28T17:07:29.412Z,198.90
2022-10-28T17:09:31.250Z,196.30
2022-10-28T17:11:33.058Z,167.63
2022-10-28T17:13:34.965Z,145.63
2022-10-28T17:15:36.793Z,130.60
2022-10-28T17:17:38.497Z,138.25
2022-10-28T17:19:41.371Z,123.72
2022-10-28T17:21:43.415Z,126.50
2022-10-28T17:23:45.150Z,325.58
2022-10-28T17:25:56.535Z,135.32
2022-10-28T17:27:58.452Z,135.52
2022-10-28T17:30:01.140Z,117.78
2022-10-28T17:32:03.603Z,79.37
2022-10-28T17:34:05.559Z,74.90
2022-10-28T17:36:07.901Z,69.57
2022-10-28T17:38:09.791Z,68.32
2022-10-28T17:40:11.639Z,50.80
2022-10-28T17:42:13.502Z,47.65
2022-10-28T17:44:15.335Z,62.50
2022-10-28T17:46:17.063Z,65.43
2022-10-28T17:48:18.975Z,63.25
2022-10-28T17:50:20.732Z,44.72
2022-10-28T17:52:22.519Z,32.90
2022-10-28T17:54:25.822Z,29.63
2022-10-28T17:56:27.680Z,40.35
2022-10-28T17:58:30.368Z,64.88
2022-10-28T18:00:32.070Z,35.08
2022-10-28T18:02:33.882Z,45.20
2022-10-28T18:04:35.738Z,43.47
2022-10-28T18:06:37.672Z,32.65
2022-10-28T18:08:43.465Z,92.03
2022-10-28T18:10:55.990Z,38.67
2022-10-28T18:12:57.938Z,22.17
2022-10-28T18:15:02.752Z,25.00
2022-10-28T18:17:04.604Z,27.02
2022-10-28T18:19:07.429Z,27.80
2022-10-28T18:21:10.027Z,37.88
2022-10-28T18:23:11.741Z,31.25
2022-10-28T18:25:13.660Z,28.88
2022-10-28T18:27:15.521Z,27.17
2022-10-28T18:29:17.244Z,23.58
2022-10-28T18:31:20.191Z,19.33
2022-10-28T18:33:22.084Z,23.25
2022-10-28T18:35:23.820Z,49.58
2022-10-28T18:37:25.715Z,44.78
2022-10-28T18:39:27.689Z,28.58
2022-10-28T18:41:31.449Z,31.13
2022-10-28T18:43:33.209Z,137.45
2022-10-28T18:45:35.062Z,41.35
2022-10-28T18:47:36.815Z,36.47
2022-10-28T18:49:38.735Z,33.65
2022-10-28T18:51:40.605Z,42.50
2022-10-28T18:53:45.664Z,37.42
2022-10-28T18:55:47.570Z,25.67
2022-10-28T18:57:52.601Z,26.77
2022-10-28T19:02:16.278Z,54.47
2022-10-28T19:04:18.152Z,37.15
2022-10-28T19:06:21.028Z,19.73
2022-10-28T19:08:22.922Z,13.30
2022-10-28T19:10:24.650Z,13.32
2022-10-28T19:12:26.363Z,10.68
2022-10-28T19:14:28.259Z,14.23
2022-10-28T19:16:31.751Z,15.70
2022-10-28T19:18:33.480Z,12.35
2022-10-28T19:20:35.225Z,13.02
2022-10-28T19:22:36.980Z,19.45
2022-10-28T19:24:38.888Z,20.58
2022-10-28T19:26:40.653Z,17.20
2022-10-28T19:28:44.824Z,17.33
2022-10-28T19:30:46.619Z,17.08
2022-10-28T19:32:48.302Z,23.35
2022-10-28T19:34:50.741Z,24.50
2022-10-28T19:36:52.483Z,17.35
2022-10-28T19:38:55.264Z,19.98
2022-10-28T19:41:01.570Z,18.30
2022-10-28T19:43:03.369Z,21.27
2022-10-28T19:45:06.138Z,19.55
2022-10-28T19:47:07.960Z,17.30
2022-10-28T19:49:09.743Z,19.40
2022-10-28T19:51:17.019Z,15.60
2022-10-28T19:53:18.853Z,17.40
2022-10-28T19:55:20.533Z,17.30
2022-10-28T19:57:22.251Z,16.23
2022-10-28T19:59:24.176Z,16.92
2022-10-28T20:01:29.946Z,17.27
2022-10-28T20:03:34.647Z,23.27
2022-10-28T20:05:36.991Z,25.88
2022-10-28T20:07:38.669Z,21.77
2022-10-28T20:09:40.472Z,22.88
2022-10-28T20:11:42.248Z,21.33
2022-10-28T20:13:44.578Z,22.42
2022-10-28T20:15:46.335Z,19.50
2022-10-28T20:17:48.401Z,15.73
2022-10-28T20:19:50.216Z,14.70
2022-10-28T20:21:52.003Z,13.57
2022-10-28T20:23:56.078Z,13.63
2022-10-28T20:25:58.305Z,14.07
2022-10-28T20:28:00.068Z,14.35
2022-10-28T20:30:01.982Z,14.95
2022-10-28T20:32:03.897Z,16.20
2022-10-28T20:34:06.051Z,13.23
2022-10-28T20:36:22.697Z,14.13
2022-10-28T20:38:25.425Z,13.75
2022-10-28T20:40:27.298Z,15.00
2022-10-28T20:42:29.081Z,15.23
2022-10-28T20:44:30.760Z,16.58
2022-10-28T20:46:33.452Z,18.90
2022-10-28T20:48:35.257Z,31.85
2022-10-28T20:50:37.029Z,20.88
2022-10-28T20:52:38.711Z,20.98
2022-10-28T20:54:40.425Z,19.30
2022-10-28T20:56:42.323Z,19.83
2022-10-28T20:58:44.534Z,14.45
2022-10-28T21:00:46.508Z,12.57
2022-10-28T21:02:48.477Z,14.13
2022-10-28T21:04:50.301Z,12.27
2022-10-28T21:06:52.037Z,12.65
2022-10-28T21:08:54.632Z,12.10
2022-10-28T21:10:56.352Z,12.48
2022-10-28T21:12:58.099Z,12.43
2022-10-28T21:14:59.923Z,12.30
2022-10-28T21:17:01.613Z,12.20
2022-10-28T21:19:03.482Z,11.23
2022-10-28T21:21:06.435Z,11.73
2022-10-28T21:23:08.157Z,12.15
2022-10-28T21:25:10.115Z,12.30
2022-10-28T21:27:11.921Z,11.68
2022-10-28T21:29:13.614Z,10.70
2022-10-28T21:31:16.576Z,11.43
2022-10-28T21:33:18.436Z,12.32
2022-10-28T21:35:20.158Z,11.40
2022-10-28T21:37:21.846Z,11.35
2022-10-28T21:39:23.713Z,12.57
2022-10-28T21:41:25.653Z,11.95
2022-10-28T21:43:28.782Z,11.73
2022-10-28T21:45:30.476Z,11.02
2022-10-28T21:47:32.167Z,11.15
2022-10-28T21:49:33.929Z,10.50
2022-10-28T21:51:35.737Z,11.45
2022-10-28T21:53:38.576Z,11.18
2022-10-28T21:55:46.495Z,11.68
2022-10-28T21:57:49.357Z,10.75
2022-10-28T21:59:51.105Z,10.90
2022-10-28T22:01:53.641Z,10.98
2022-10-28T22:03:55.767Z,10.75
2022-10-28T22:05:57.635Z,10.30
2022-10-28T22:08:01.927Z,10.95
2022-10-28T22:10:06.710Z,11.30
2022-10-28T22:12:08.608Z,12.43
2022-10-28T22:14:10.526Z,10.48
2022-10-28T22:16:14.919Z,12.63
2022-10-28T22:18:16.639Z,12.32
2022-10-28T22:20:18.700Z,14.80
2022-10-28T22:22:20.589Z,13.50
2022-10-28T22:24:22.337Z,14.05
2022-10-28T22:26:29.560Z,12.23
2022-10-28T22:28:31.584Z,12.18
2022-10-28T22:30:33.337Z,11.18
2022-10-28T22:32:35.241Z,10.40
2022-10-28T22:34:36.984Z,11.40
2022-10-28T22:36:38.704Z,11.55
2022-10-28T22:38:40.623Z,12.20
2022-10-28T22:40:42.456Z,11.40
2022-10-28T22:42:44.144Z,10.85
2022-10-28T22:44:46.106Z,10.70
2022-10-28T22:46:47.996Z,10.20
2022-10-28T22:48:50.031Z,11.10
2022-10-28T22:50:52.660Z,10.38
2022-10-28T22:52:54.391Z,10.52
2022-10-28T22:54:56.100Z,10.43
2022-10-28T22:56:57.875Z,10.52
2022-10-28T22:59:01.886Z,10.32
2022-10-28T23:01:12.680Z,10.75
2022-10-28T23:03:15.177Z,10.63
2022-10-28T23:05:17.020Z,10.60
2022-10-28T23:07:18.719Z,10.23
2022-10-28T23:09:20.664Z,11.20
2022-10-28T23:11:23.134Z,11.57
2022-10-28T23:13:24.957Z,11.35
2022-10-28T23:15:27.592Z,10.65
2022-10-28T23:17:29.360Z,12.77
2022-10-28T23:19:31.078Z,12.85
2022-10-28T23:21:33.085Z,11.00
2022-10-28T23:23:34.896Z,11.38
2022-10-28T23:25:36.674Z,12.65
2022-10-28T23:27:42.661Z,12.15
2022-10-28T23:29:44.625Z,10.55
2022-10-28T23:31:46.371Z,10.52
2022-10-28T23:33:48.583Z,10.93
2022-10-28T23:35:54.947Z,11.18
2022-10-28T23:37:59.096Z,12.93
2022-10-28T23:40:01.014Z,10.50
2022-10-28T23:42:02.784Z,10.13
2022-10-28T23:44:04.612Z,12.60
2022-10-28T23:46:06.747Z,26.67
2022-10-28T23:48:08.577Z,18.05
2022-10-28T23:50:10.439Z,15.07
2022-10-28T23:52:12.227Z,11.60
2022-10-28T23:54:13.974Z,11.23
2022-10-28T23:56:15.681Z,10.50
2022-10-28T23:58:18.772Z,20.33
